Time;durP1;ratioP1;P1;durP2;ratioP2;P2;SDS_P1;SDS_P2;PMS_P1;PMS_P2;Temp;Humidity;BMP_temperature;BMP_pressure;BME280_temperature;BME280_humidity;BME280_pressure;Samples;Min_cycle;Max_cycle;Signal;HPM_P1;HPM_P2
2022/03/03 00:00:43;;;;;;;;;13.00;13.00;;;;;;;;5072636;28;45455;-71
2022/03/03 00:03:08;;;;;;;;;17.75;14.00;;;;;;;;5076582;28;45532;-70
2022/03/03 00:05:33;;;;;;;;;15.00;15.00;;;;;;;;5088669;27;45445;-71
2022/03/03 00:07:59;;;;;;;;;15.75;14.00;;;;;;;;5077430;28;45500;-70
2022/03/03 00:10:24;;;;;;;;;15.50;13.50;;;;;;;;5076685;28;45420;-71
2022/03/03 00:12:49;;;;;;;;;10.75;10.00;;;;;;;;5076700;27;46624;-71
2022/03/03 00:15:14;;;;;;;;;13.00;11.75;;;;;;;;5076040;28;45389;-71
2022/03/03 00:17:40;;;;;;;;;17.25;15.25;;;;;;;;5076821;28;45465;-71
2022/03/03 00:20:05;;;;;;;;;16.75;15.25;;;;;;;;5055265;28;45599;-71
2022/03/03 00:22:30;;;;;;;;;11.50;11.50;;;;;;;;5076403;28;45414;-71
2022/03/03 00:24:56;;;;;;;;;15.00;12.50;;;;;;;;5077311;27;45458;-71
2022/03/03 00:27:21;;;;;;;;;17.75;14.25;;;;;;;;5078171;27;45368;-71
2022/03/03 00:29:46;;;;;;;;;17.25;14.00;;;;;;;;5076037;28;45225;-71
2022/03/03 00:32:11;;;;;;;;;14.75;11.75;;;;;;;;5073219;28;45458;-71
2022/03/03 00:34:37;;;;;;;;;15.00;14.25;;;;;;;;5079453;27;45528;-71
2022/03/03 00:37:02;;;;;;;;;16.00;14.75;;;;;;;;5076439;28;45398;-71
2022/03/03 00:39:27;;;;;;;;;15.75;14.00;;;;;;;;5075974;28;45549;-71
2022/03/03 00:41:52;;;;;;;;;13.00;13.00;;;;;;;;5076442;28;46355;-71
2022/03/03 00:44:18;;;;;;;;;15.00;13.50;;;;;;;;5076510;28;45395;-71
2022/03/03 00:46:43;;;;;;;;;14.75;14.00;;;;;;;;5075612;28;45443;-70
2022/03/03 00:49:08;;;;;;;;;15.00;14.50;;;;;;;;5078118;27;45419;-71
2022/03/03 00:51:34;;;;;;;;;14.25;14.25;;;;;;;;5075599;28;45490;-71
2022/03/03 00:53:59;;;;;;;;;13.75;13.00;;;;;;;;5075788;28;45490;-71
2022/03/03 00:56:24;;;;;;;;;12.75;12.50;;;;;;;;5075871;28;45280;-71
2022/03/03 00:58:50;;;;;;;;;17.50;15.50;;;;;;;;5076733;28;45464;-71
2022/03/03 01:01:15;;;;;;;;;14.25;11.75;;;;;;;;5074579;27;46638;-71
2022/03/03 01:03:41;;;;;;;;;14.50;13.75;;;;;;;;5076028;27;45499;-71
2022/03/03 01:06:06;;;;;;;;;15.00;13.00;;;;;;;;5077387;27;45225;-71
2022/03/03 01:08:32;;;;;;;;;14.75;13.50;;;;;;;;5077080;27;45294;-71
2022/03/03 01:10:57;;;;;;;;;14.50;14.25;;;;;;;;5076843;28;46275;-71
2022/03/03 01:13:22;;;;;;;;;13.75;13.75;;;;;;;;5075645;27;45343;-71
2022/03/03 01:15:48;;;;;;;;;13.00;12.00;;;;;;;;5075388;28;45487;-70
2022/03/03 01:18:13;;;;;;;;;17.25;14.50;;;;;;;;5075816;28;45541;-71
2022/03/03 01:20:38;;;;;;;;;14.00;13.25;;;;;;;;5075553;27;45388;-71
2022/03/03 01:23:04;;;;;;;;;14.75;13.00;;;;;;;;5079771;27;45413;-71
2022/03/03 01:25:29;;;;;;;;;17.50;14.75;;;;;;;;5075771;28;45655;-71
2022/03/03 01:27:54;;;;;;;;;14.75;14.25;;;;;;;;5075229;28;45413;-71
2022/03/03 01:30:19;;;;;;;;;14.00;13.25;;;;;;;;5074823;27;46562;-71
2022/03/03 01:32:45;;;;;;;;;19.00;17.75;;;;;;;;5075563;28;45592;-71
2022/03/03 01:35:10;;;;;;;;;17.25;14.50;;;;;;;;5076310;28;45218;-70
2022/03/03 01:37:35;;;;;;;;;17.00;15.00;;;;;;;;5075530;27;45309;-71
2022/03/03 01:40:00;;;;;;;;;17.25;14.75;;;;;;;;5074906;28;46420;-71
2022/03/03 01:42:25;;;;;;;;;17.25;15.00;;;;;;;;5073225;28;45315;-71
2022/03/03 01:44:51;;;;;;;;;13.00;13.00;;;;;;;;5065839;28;45438;-71
2022/03/03 01:47:17;;;;;;;;;12.50;12.50;;;;;;;;5086590;27;45335;-71
2022/03/03 01:49:43;;;;;;;;;17.50;16.50;;;;;;;;5075152;28;45496;-71
2022/03/03 01:52:08;;;;;;;;;16.50;12.75;;;;;;;;5075991;27;45347;-71
2022/03/03 01:54:33;;;;;;;;;15.25;14.25;;;;;;;;5081252;27;45478;-71
2022/03/03 01:56:58;;;;;;;;;16.50;14.00;;;;;;;;5083727;27;45810;-71
2022/03/03 01:59:24;;;;;;;;;15.25;14.50;;;;;;;;5074487;28;45696;-71
2022/03/03 02:01:50;;;;;;;;;15.75;15.50;;;;;;;;5075713;28;45376;-71
2022/03/03 02:04:15;;;;;;;;;16.75;14.25;;;;;;;;5070178;27;45632;-71
2022/03/03 02:06:40;;;;;;;;;16.25;15.50;;;;;;;;5075032;27;45461;-71
2022/03/03 02:09:05;;;;;;;;;16.50;14.75;;;;;;;;5075189;27;47749;-70
2022/03/03 02:11:31;;;;;;;;;17.00;15.00;;;;;;;;5074887;28;45545;-71
2022/03/03 02:13:57;;;;;;;;;16.00;15.25;;;;;;;;5075244;28;45382;-70
2022/03/03 02:16:22;;;;;;;;;17.50;15.75;;;;;;;;5074458;28;45390;-71
2022/03/03 02:18:48;;;;;;;;;19.00;16.25;;;;;;;;5080384;27;45954;-71
2022/03/03 02:21:15;;;;;;;;;17.25;15.50;;;;;;;;5095050;27;45367;-71
2022/03/03 02:23:40;;;;;;;;;15.75;13.75;;;;;;;;5090133;27;45280;-71
2022/03/03 02:26:07;;;;;;;;;13.75;11.00;;;;;;;;5095860;27;45546;-71
2022/03/03 02:28:32;;;;;;;;;17.75;14.50;;;;;;;;5094883;27;46810;-71
2022/03/03 02:30:58;;;;;;;;;18.00;17.00;;;;;;;;5076862;27;45660;-70
2022/03/03 02:33:23;;;;;;;;;15.50;14.75;;;;;;;;5097627;27;45342;-71
2022/03/03 02:35:48;;;;;;;;;17.00;12.75;;;;;;;;5095259;27;45362;-71
2022/03/03 02:38:13;;;;;;;;;17.00;15.25;;;;;;;;5095090;27;45351;-71
2022/03/03 02:40:39;;;;;;;;;22.25;16.50;;;;;;;;5095689;27;45568;-71
2022/03/03 02:43:04;;;;;;;;;17.50;15.75;;;;;;;;5097053;27;45760;-71
2022/03/03 02:45:29;;;;;;;;;14.00;14.00;;;;;;;;5094517;27;45417;-71
2022/03/03 02:47:54;;;;;;;;;16.50;13.50;;;;;;;;5095960;27;46295;-70
2022/03/03 02:50:23;;;;;;;;;19.00;15.25;;;;;;;;5097494;27;45352;-70
2022/03/03 02:52:48;;;;;;;;;16.25;15.00;;;;;;;;5095957;27;45391;-71
2022/03/03 02:55:13;;;;;;;;;17.00;17.00;;;;;;;;5086004;27;45377;-70
2022/03/03 02:57:54;;;;;;;;;15.75;15.75;;;;;;;;5085901;27;45323;-70
2022/03/03 03:00:20;;;;;;;;;18.75;14.50;;;;;;;;5094664;27;45557;-71
2022/03/03 03:02:45;;;;;;;;;17.75;17.25;;;;;;;;5094300;27;45578;-70
2022/03/03 03:05:10;;;;;;;;;16.00;14.00;;;;;;;;5095891;27;45318;-71
2022/03/03 03:07:36;;;;;;;;;17.00;17.00;;;;;;;;5094562;27;46629;-71
2022/03/03 03:10:02;;;;;;;;;17.00;16.00;;;;;;;;5097794;27;45355;-70
2022/03/03 03:12:28;;;;;;;;;17.25;13.75;;;;;;;;5099292;27;45366;-71
2022/03/03 03:14:53;;;;;;;;;16.50;15.50;;;;;;;;5109895;27;45413;-70
2022/03/03 03:17:18;;;;;;;;;17.50;16.75;;;;;;;;5113271;27;46391;-71
2022/03/03 03:19:43;;;;;;;;;19.00;18.75;;;;;;;;5098912;27;45503;-70
2022/03/03 03:22:09;;;;;;;;;14.75;14.00;;;;;;;;5098730;27;45578;-70
2022/03/03 03:24:34;;;;;;;;;14.75;14.75;;;;;;;;5098192;27;45530;-71
2022/03/03 03:26:59;;;;;;;;;16.75;16.75;;;;;;;;5097574;27;48068;-71
2022/03/03 03:29:24;;;;;;;;;18.50;17.75;;;;;;;;5098036;27;45678;-71
2022/03/03 03:31:49;;;;;;;;;15.75;13.50;;;;;;;;5100525;27;45383;-71
2022/03/03 03:34:15;;;;;;;;;15.50;15.50;;;;;;;;5079106;27;46378;-71
2022/03/03 03:36:40;;;;;;;;;14.50;14.50;;;;;;;;5097251;27;45462;-70
2022/03/03 03:39:05;;;;;;;;;15.50;15.00;;;;;;;;5097527;27;45369;-71
2022/03/03 03:41:30;;;;;;;;;19.00;17.00;;;;;;;;5097652;27;45590;-71
2022/03/03 03:43:56;;;;;;;;;13.75;13.75;;;;;;;;5084291;27;45367;-71
2022/03/03 03:46:21;;;;;;;;;15.50;14.50;;;;;;;;5095283;27;45533;-71
2022/03/03 03:48:46;;;;;;;;;18.75;16.50;;;;;;;;5092545;27;45439;-71
2022/03/03 03:51:11;;;;;;;;;15.75;14.25;;;;;;;;5088757;27;45568;-71
2022/03/03 03:53:36;;;;;;;;;14.00;12.75;;;;;;;;5097759;27;45599;-71
2022/03/03 03:56:02;;;;;;;;;13.75;13.50;;;;;;;;5093659;27;46595;-70
2022/03/03 03:58:27;;;;;;;;;15.50;15.50;;;;;;;;5096841;27;45436;-70
2022/03/03 04:00:52;;;;;;;;;17.50;16.75;;;;;;;;5097429;27;45377;-71
2022/03/03 04:03:17;;;;;;;;;17.50;15.00;;;;;;;;5108129;27;45476;-71
2022/03/03 04:05:43;;;;;;;;;16.00;14.50;;;;;;;;5097823;27;46527;-71
2022/03/03 04:08:08;;;;;;;;;19.00;16.75;;;;;;;;5097753;27;45398;-71
2022/03/03 04:10:33;;;;;;;;;15.75;15.75;;;;;;;;5112893;27;45768;-71
2022/03/03 04:12:59;;;;;;;;;12.00;12.00;;;;;;;;5096971;27;45531;-70
2022/03/03 04:15:24;;;;;;;;;16.50;14.25;;;;;;;;5096578;27;46185;-70
2022/03/03 04:17:49;;;;;;;;;17.50;14.75;;;;;;;;5096889;27;45398;-71
2022/03/03 04:20:15;;;;;;;;;17.75;14.00;;;;;;;;5086063;27;45465;-71
2022/03/03 04:22:40;;;;;;;;;16.25;14.50;;;;;;;;5097335;27;45543;-71
2022/03/03 04:25:06;;;;;;;;;16.25;15.75;;;;;;;;5097100;27;46199;-70
2022/03/03 04:27:31;;;;;;;;;14.75;14.75;;;;;;;;5096770;27;45400;-70
2022/03/03 04:29:56;;;;;;;;;21.00;17.25;;;;;;;;5098626;27;45357;-71
2022/03/03 04:32:22;;;;;;;;;18.50;15.50;;;;;;;;5096982;27;45432;-70
2022/03/03 04:34:47;;;;;;;;;17.75;14.00;;;;;;;;5097546;27;45492;-70
2022/03/03 04:37:12;;;;;;;;;18.25;15.00;;;;;;;;5096848;27;45459;-70
2022/03/03 04:39:37;;;;;;;;;18.75;17.00;;;;;;;;5096178;27;45511;-71
2022/03/03 04:42:04;;;;;;;;;17.00;17.00;;;;;;;;5097250;27;45548;-71
2022/03/03 04:44:29;;;;;;;;;15.25;15.25;;;;;;;;5096660;27;47701;-71
2022/03/03 04:46:54;;;;;;;;;17.50;16.50;;;;;;;;5097722;27;45413;-70
2022/03/03 04:49:20;;;;;;;;;17.50;14.50;;;;;;;;5086950;27;45557;-71
2022/03/03 04:51:45;;;;;;;;;16.50;15.00;;;;;;;;5089404;27;45452;-71
2022/03/03 04:54:10;;;;;;;;;16.00;15.00;;;;;;;;5095706;27;46328;-70
2022/03/03 04:56:36;;;;;;;;;20.75;16.50;;;;;;;;5096903;27;45429;-71
2022/03/03 04:59:02;;;;;;;;;20.50;17.25;;;;;;;;5097722;27;45392;-71
2022/03/03 05:01:27;;;;;;;;;17.00;17.00;;;;;;;;5096223;27;45506;-71
2022/03/03 05:03:52;;;;;;;;;18.50;18.50;;;;;;;;5095671;27;45435;-71
2022/03/03 05:06:17;;;;;;;;;8.25;6.25;;;;;;;;5096781;27;45417;-71
2022/03/03 05:08:43;;;;;;;;;17.00;15.00;;;;;;;;5095681;27;45307;-71
2022/03/03 05:11:08;;;;;;;;;22.00;18.00;;;;;;;;5079069;27;45333;-71
2022/03/03 05:13:34;;;;;;;;;18.00;15.00;;;;;;;;5095866;27;46386;-70
2022/03/03 05:15:59;;;;;;;;;17.75;16.75;;;;;;;;5097366;27;45662;-71
2022/03/03 05:18:24;;;;;;;;;16.00;15.00;;;;;;;;5094668;27;45563;-70
2022/03/03 05:20:49;;;;;;;;;15.50;15.25;;;;;;;;5081464;27;45466;-71
2022/03/03 05:23:15;;;;;;;;;16.25;16.25;;;;;;;;5096149;27;45352;-71
2022/03/03 05:25:40;;;;;;;;;19.50;16.00;;;;;;;;5096250;27;45378;-71
2022/03/03 05:28:05;;;;;;;;;12.75;12.50;;;;;;;;5095630;27;45515;-71
2022/03/03 05:30:30;;;;;;;;;16.75;13.25;;;;;;;;5095516;27;45483;-71
2022/03/03 05:32:57;;;;;;;;;24.50;18.75;;;;;;;;5095866;27;46322;-71
2022/03/03 05:35:22;;;;;;;;;19.50;18.25;;;;;;;;5096330;27;45327;-71
2022/03/03 05:37:48;;;;;;;;;17.00;14.50;;;;;;;;5096318;27;45307;-71
2022/03/03 05:40:14;;;;;;;;;14.25;14.25;;;;;;;;5095897;27;45465;-71
2022/03/03 05:42:39;;;;;;;;;18.75;16.25;;;;;;;;5099673;27;46644;-71
2022/03/03 05:45:05;;;;;;;;;17.50;17.25;;;;;;;;5095606;27;45452;-70
2022/03/03 05:47:30;;;;;;;;;18.50;16.75;;;;;;;;5096008;27;45370;-71
2022/03/03 05:49:56;;;;;;;;;17.50;16.00;;;;;;;;5096037;27;45204;-71
2022/03/03 05:52:21;;;;;;;;;17.75;16.00;;;;;;;;5095031;27;47126;-71
2022/03/03 05:54:47;;;;;;;;;18.50;17.00;;;;;;;;5095366;27;45565;-71
2022/03/03 05:57:26;;;;;;;;;16.50;16.50;;;;;;;;5095739;27;45509;-70
2022/03/03 05:59:53;;;;;;;;;14.25;13.75;;;;;;;;5092144;27;45476;-71
2022/03/03 06:02:18;;;;;;;;;17.50;15.75;;;;;;;;5095989;27;47230;-71
2022/03/03 06:04:45;;;;;;;;;18.50;15.00;;;;;;;;5090897;27;45469;-70
2022/03/03 06:07:12;;;;;;;;;18.75;17.25;;;;;;;;5095399;27;45347;-70
2022/03/03 06:09:37;;;;;;;;;15.25;15.00;;;;;;;;5095582;27;45359;-70
2022/03/03 06:12:02;;;;;;;;;20.00;17.25;;;;;;;;5094902;27;45292;-70
2022/03/03 06:14:51;;;;;;;;;16.75;15.25;;;;;;;;5094701;27;45394;-71
2022/03/03 06:17:19;;;;;;;;;17.00;14.75;;;;;;;;5088038;27;45284;-71
2022/03/03 06:19:45;;;;;;;;;18.00;16.00;;;;;;;;5095532;27;45472;-71
2022/03/03 06:22:11;;;;;;;;;18.50;18.00;;;;;;;;5094611;27;45452;-70
2022/03/03 06:24:37;;;;;;;;;17.75;16.50;;;;;;;;5094887;27;45530;-71
2022/03/03 06:27:02;;;;;;;;;19.25;17.25;;;;;;;;5076825;27;45492;-70
2022/03/03 06:29:27;;;;;;;;;18.25;15.00;;;;;;;;5095403;27;45475;-71
2022/03/03 06:31:53;;;;;;;;;16.50;15.75;;;;;;;;5091321;27;45500;-71
2022/03/03 06:34:20;;;;;;;;;17.25;16.50;;;;;;;;5094248;27;45456;-70
2022/03/03 06:36:45;;;;;;;;;16.50;15.25;;;;;;;;5095262;27;45361;-71
2022/03/03 06:39:10;;;;;;;;;20.00;17.50;;;;;;;;5094797;27;45378;-70
2022/03/03 06:41:36;;;;;;;;;17.50;16.00;;;;;;;;5094660;27;46320;-71
2022/03/03 06:44:01;;;;;;;;;19.25;19.25;;;;;;;;5095855;27;45309;-70
2022/03/03 06:46:26;;;;;;;;;19.75;16.25;;;;;;;;5095248;27;45409;-71
2022/03/03 06:48:51;;;;;;;;;19.25;17.00;;;;;;;;5094587;27;45288;-70
2022/03/03 06:51:20;;;;;;;;;19.50;17.50;;;;;;;;5094195;27;45452;-71
2022/03/03 06:53:46;;;;;;;;;18.00;13.25;;;;;;;;5094308;27;45637;-71
2022/03/03 06:56:12;;;;;;;;;20.50;15.75;;;;;;;;5098783;27;45801;-70
2022/03/03 06:58:38;;;;;;;;;16.00;16.00;;;;;;;;5094630;27;45301;-71
2022/03/03 07:01:12;;;;;;;;;17.25;15.75;;;;;;;;5094460;27;45480;-71
2022/03/03 07:03:41;;;;;;;;;19.25;15.25;;;;;;;;5096763;27;45315;-70
2022/03/03 07:06:06;;;;;;;;;16.75;15.00;;;;;;;;5094423;27;45286;-70
2022/03/03 07:08:31;;;;;;;;;18.25;16.25;;;;;;;;5097536;27;45431;-71
2022/03/03 07:10:57;;;;;;;;;20.25;18.75;;;;;;;;5095506;27;45449;-71
2022/03/03 07:13:22;;;;;;;;;19.25;17.25;;;;;;;;5094783;27;45376;-71
2022/03/03 07:15:49;;;;;;;;;18.25;18.25;;;;;;;;5094870;27;50412;-70
2022/03/03 07:18:24;;;;;;;;;18.50;15.00;;;;;;;;5105574;27;45638;-71
2022/03/03 07:20:55;;;;;;;;;18.25;17.50;;;;;;;;5091862;27;46106;-71
2022/03/03 07:23:34;;;;;;;;;18.50;16.00;;;;;;;;5097048;27;45427;-71
2022/03/03 07:26:00;;;;;;;;;20.75;17.50;;;;;;;;5094225;27;45323;-71
2022/03/03 07:28:27;;;;;;;;;18.75;18.50;;;;;;;;5093733;27;45353;-71
2022/03/03 07:30:53;;;;;;;;;19.25;18.00;;;;;;;;5089011;27;46252;-71
2022/03/03 07:33:19;;;;;;;;;19.50;18.00;;;;;;;;5093997;27;45298;-70
2022/03/03 07:35:48;;;;;;;;;16.00;16.00;;;;;;;;5094902;27;45346;-71
2022/03/03 07:38:15;;;;;;;;;16.00;16.00;;;;;;;;5094831;27;45417;-71
2022/03/03 07:40:42;;;;;;;;;19.50;18.00;;;;;;;;5094711;27;45371;-71
2022/03/03 07:43:07;;;;;;;;;17.25;16.00;;;;;;;;5086530;27;45544;-70
2022/03/03 07:45:32;;;;;;;;;15.25;14.50;;;;;;;;5087063;27;45702;-70
2022/03/03 07:47:58;;;;;;;;;20.50;16.75;;;;;;;;5093557;27;45471;-71
2022/03/03 07:50:24;;;;;;;;;20.75;17.25;;;;;;;;5104949;27;46563;-71
2022/03/03 07:52:49;;;;;;;;;16.75;16.25;;;;;;;;5095301;27;45817;-71
2022/03/03 07:55:15;;;;;;;;;16.50;16.00;;;;;;;;5087704;27;45548;-71
2022/03/03 07:57:47;;;;;;;;;18.50;18.50;;;;;;;;5089623;27;45349;-71
2022/03/03 08:00:13;;;;;;;;;16.50;16.50;;;;;;;;5093644;27;45710;-71
2022/03/03 08:02:43;;;;;;;;;19.75;18.00;;;;;;;;5096792;27;45548;-71
2022/03/03 08:05:08;;;;;;;;;18.00;17.00;;;;;;;;5098353;27;45522;-71
2022/03/03 08:07:44;;;;;;;;;18.00;16.75;;;;;;;;5097300;27;45677;-71
2022/03/03 08:10:10;;;;;;;;;16.75;16.00;;;;;;;;5096350;27;45764;-71
2022/03/03 08:12:35;;;;;;;;;15.25;12.50;;;;;;;;5096567;27;45370;-71
2022/03/03 08:15:00;;;;;;;;;18.50;16.75;;;;;;;;5097415;27;45421;-70
2022/03/03 08:17:26;;;;;;;;;19.25;18.00;;;;;;;;5097366;27;45318;-71
2022/03/03 08:19:55;;;;;;;;;21.75;18.75;;;;;;;;5084336;27;46654;-71
2022/03/03 08:22:24;;;;;;;;;18.75;17.75;;;;;;;;5094382;27;45353;-71
2022/03/03 08:24:50;;;;;;;;;16.00;16.00;;;;;;;;5097406;27;45368;-71
2022/03/03 08:27:15;;;;;;;;;22.25;19.75;;;;;;;;5096588;27;45608;-70
2022/03/03 08:29:41;;;;;;;;;19.25;18.75;;;;;;;;5096916;27;48177;-71
2022/03/03 08:32:11;;;;;;;;;19.50;18.00;;;;;;;;5106538;27;45469;-70
2022/03/03 08:34:51;;;;;;;;;17.50;15.50;;;;;;;;5096598;27;45566;-71
2022/03/03 08:37:20;;;;;;;;;17.00;16.50;;;;;;;;5091737;27;45541;-71
2022/03/03 08:39:46;;;;;;;;;19.75;19.00;;;;;;;;5096034;27;47347;-71
2022/03/03 08:42:14;;;;;;;;;19.00;16.25;;;;;;;;5097006;27;45385;-71
2022/03/03 08:44:41;;;;;;;;;21.75;18.25;;;;;;;;5096649;27;45594;-70
2022/03/03 08:47:07;;;;;;;;;19.75;17.50;;;;;;;;5099501;27;45545;-70
2022/03/03 08:49:40;;;;;;;;;19.00;17.00;;;;;;;;5096682;27;46260;-70
2022/03/03 08:52:06;;;;;;;;;20.50;18.00;;;;;;;;5096270;27;45418;-70
2022/03/03 08:54:31;;;;;;;;;20.50;19.25;;;;;;;;5098435;27;45766;-70
2022/03/03 08:56:56;;;;;;;;;19.00;16.25;;;;;;;;5096842;27;45537;-70
2022/03/03 08:59:21;;;;;;;;;21.25;17.75;;;;;;;;5096150;27;46168;-71
2022/03/03 09:01:48;;;;;;;;;20.75;19.00;;;;;;;;5097431;27;45475;-71
2022/03/03 09:04:13;;;;;;;;;24.50;19.50;;;;;;;;5096366;27;45463;-70
2022/03/03 09:06:38;;;;;;;;;17.00;16.00;;;;;;;;5091719;27;45445;-70
2022/03/03 09:09:04;;;;;;;;;18.00;17.50;;;;;;;;5082787;27;45468;-70
2022/03/03 09:11:29;;;;;;;;;22.75;19.75;;;;;;;;5105366;27;45312;-71
2022/03/03 09:13:54;;;;;;;;;20.25;18.00;;;;;;;;5096841;27;45263;-71
2022/03/03 09:16:21;;;;;;;;;18.25;18.00;;;;;;;;5096188;27;45560;-71
2022/03/03 09:18:47;;;;;;;;;20.75;18.50;;;;;;;;5095667;27;45460;-70
2022/03/03 09:21:12;;;;;;;;;19.00;17.50;;;;;;;;5096160;27;45395;-71
2022/03/03 09:23:38;;;;;;;;;24.50;19.75;;;;;;;;5107535;27;45236;-71
2022/03/03 09:26:04;;;;;;;;;22.75;18.25;;;;;;;;5097433;27;45279;-71
2022/03/03 09:28:29;;;;;;;;;19.25;17.25;;;;;;;;5095649;27;46204;-70
2022/03/03 09:30:56;;;;;;;;;16.75;15.50;;;;;;;;5096030;27;45460;-71
2022/03/03 09:33:21;;;;;;;;;17.50;16.75;;;;;;;;5095974;27;45366;-71
2022/03/03 09:35:46;;;;;;;;;19.00;19.00;;;;;;;;5095915;27;45399;-71
2022/03/03 09:38:12;;;;;;;;;16.25;16.25;;;;;;;;5078131;27;47961;-71
2022/03/03 09:40:37;;;;;;;;;25.00;17.25;;;;;;;;5095804;27;45466;-71
2022/03/03 09:43:04;;;;;;;;;17.25;17.25;;;;;;;;5095870;27;45548;-70
2022/03/03 09:45:30;;;;;;;;;19.50;17.00;;;;;;;;5095677;27;45539;-71
2022/03/03 09:47:57;;;;;;;;;20.00;18.25;;;;;;;;5094988;27;46252;-71
2022/03/03 09:50:22;;;;;;;;;19.50;17.25;;;;;;;;5079205;27;45657;-71
2022/03/03 09:52:48;;;;;;;;;18.50;18.00;;;;;;;;5083439;27;45417;-71
2022/03/03 09:55:13;;;;;;;;;21.00;19.00;;;;;;;;5083575;27;45840;-71
2022/03/03 09:57:39;;;;;;;;;19.50;18.00;;;;;;;;5086906;27;47273;-70
2022/03/03 10:00:07;;;;;;;;;18.25;16.25;;;;;;;;5092752;27;45363;-71
2022/03/03 10:02:32;;;;;;;;;19.00;16.75;;;;;;;;5093986;27;45410;-71
2022/03/03 10:04:57;;;;;;;;;19.25;19.25;;;;;;;;5096490;27;46060;-71
2022/03/03 10:07:23;;;;;;;;;23.00;18.75;;;;;;;;5095201;27;47339;-71
2022/03/03 10:10:02;;;;;;;;;21.75;17.75;;;;;;;;5095758;27;45487;-71
2022/03/03 10:12:39;;;;;;;;;19.25;18.50;;;;;;;;5085091;27;45449;-71
2022/03/03 10:15:05;;;;;;;;;17.00;17.00;;;;;;;;5095287;27;45454;-70
2022/03/03 10:17:36;;;;;;;;;21.00;17.50;;;;;;;;5094996;27;47015;-71
2022/03/03 10:20:04;;;;;;;;;20.00;17.75;;;;;;;;5096181;27;45349;-70
2022/03/03 10:22:39;;;;;;;;;22.50;19.00;;;;;;;;5095415;27;45690;-71
2022/03/03 10:25:05;;;;;;;;;21.00;18.00;;;;;;;;5095090;27;45397;-70
2022/03/03 10:27:33;;;;;;;;;18.75;17.75;;;;;;;;5097879;27;45488;-71
2022/03/03 10:29:58;;;;;;;;;21.50;16.75;;;;;;;;5096366;27;48483;-71
2022/03/03 10:32:24;;;;;;;;;17.75;16.50;;;;;;;;5095383;27;45443;-71
2022/03/03 10:34:53;;;;;;;;;20.25;19.00;;;;;;;;5095629;27;45515;-70
2022/03/03 10:37:21;;;;;;;;;19.50;17.00;;;;;;;;5094511;27;46571;-71
2022/03/03 10:39:48;;;;;;;;;20.25;19.75;;;;;;;;5095194;27;45346;-71
2022/03/03 10:42:16;;;;;;;;;20.00;20.00;;;;;;;;5094914;27;45417;-71
2022/03/03 10:44:42;;;;;;;;;20.25;18.75;;;;;;;;5083665;27;45982;-71
2022/03/03 10:47:08;;;;;;;;;20.00;16.75;;;;;;;;5077463;27;46566;-70
2022/03/03 10:49:35;;;;;;;;;23.50;20.50;;;;;;;;5099239;27;45459;-71
2022/03/03 10:52:11;;;;;;;;;19.75;19.00;;;;;;;;5097758;27;45457;-71
2022/03/03 10:54:47;;;;;;;;;20.00;17.00;;;;;;;;5095081;27;45273;-71
2022/03/03 10:57:28;;;;;;;;;19.25;18.00;;;;;;;;5094628;27;45322;-71
2022/03/03 10:59:54;;;;;;;;;19.25;16.75;;;;;;;;5091280;27;45491;-71
2022/03/03 11:02:19;;;;;;;;;16.50;16.50;;;;;;;;5095342;27;45295;-71
2022/03/03 11:04:44;;;;;;;;;18.75;16.50;;;;;;;;5095373;27;45614;-71
2022/03/03 11:07:10;;;;;;;;;18.75;15.25;;;;;;;;5086840;27;47444;-71
2022/03/03 11:09:37;;;;;;;;;16.75;16.75;;;;;;;;5085135;27;45779;-71
2022/03/03 11:12:03;;;;;;;;;20.00;16.75;;;;;;;;5094810;27;45441;-71
2022/03/03 11:14:29;;;;;;;;;20.50;18.75;;;;;;;;5093030;27;45380;-71
2022/03/03 11:16:54;;;;;;;;;17.25;16.25;;;;;;;;5092860;27;46146;-70
2022/03/03 11:19:20;;;;;;;;;14.50;13.00;;;;;;;;5094584;27;45288;-71
2022/03/03 11:21:45;;;;;;;;;15.75;15.75;;;;;;;;5076316;27;45556;-71
2022/03/03 11:24:12;;;;;;;;;15.00;14.25;;;;;;;;5093705;27;45556;-71
2022/03/03 11:26:41;;;;;;;;;18.25;15.25;;;;;;;;5094972;27;45571;-71
2022/03/03 11:29:13;;;;;;;;;16.50;15.00;;;;;;;;5095851;27;45472;-71
2022/03/03 11:31:39;;;;;;;;;18.25;15.25;;;;;;;;5098292;27;45295;-71
2022/03/03 11:34:17;;;;;;;;;18.25;15.75;;;;;;;;5098107;27;45416;-70
2022/03/03 11:36:44;;;;;;;;;17.00;14.25;;;;;;;;5097711;27;46273;-71
2022/03/03 11:39:10;;;;;;;;;15.50;15.50;;;;;;;;5097037;27;45355;-71
2022/03/03 11:41:50;;;;;;;;;14.25;12.75;;;;;;;;5098022;27;45354;-71
2022/03/03 11:44:16;;;;;;;;;16.25;16.00;;;;;;;;5082292;27;45588;-71
2022/03/03 11:46:45;;;;;;;;;16.75;15.75;;;;;;;;5097835;27;45848;-71
2022/03/03 11:49:11;;;;;;;;;17.25;14.75;;;;;;;;5097512;27;45572;-71
2022/03/03 11:51:37;;;;;;;;;15.00;13.00;;;;;;;;5097491;27;45298;-70
2022/03/03 11:54:06;;;;;;;;;14.25;14.25;;;;;;;;5098497;27;45495;-71
2022/03/03 11:56:32;;;;;;;;;15.00;13.50;;;;;;;;5097656;27;46385;-70
2022/03/03 11:59:12;;;;;;;;;18.50;15.50;;;;;;;;5098090;27;45247;-71
2022/03/03 12:01:54;;;;;;;;;15.00;15.00;;;;;;;;5100149;27;45423;-71
2022/03/03 12:04:20;;;;;;;;;15.75;14.00;;;;;;;;5079124;27;45493;-71
2022/03/03 12:06:47;;;;;;;;;14.50;12.50;;;;;;;;5096423;27;47994;-71
2022/03/03 12:09:25;;;;;;;;;17.00;15.00;;;;;;;;5084624;27;45492;-71
2022/03/03 12:12:05;;;;;;;;;13.75;13.25;;;;;;;;5082345;27;45544;-70
2022/03/03 12:14:49;;;;;;;;;13.00;13.00;;;;;;;;5097556;27;47336;-71
2022/03/03 12:17:33;;;;;;;;;12.75;12.75;;;;;;;;5094378;27;46134;-70
2022/03/03 12:20:34;;;;;;;;;13.50;13.25;;;;;;;;5098118;27;45575;-70
2022/03/03 12:23:13;;;;;;;;;14.25;13.25;;;;;;;;5033234;28;45356;-71
2022/03/03 12:25:50;;;;;;;;;13.50;13.00;;;;;;;;5034258;28;45399;-71
2022/03/03 12:28:15;;;;;;;;;16.00;13.50;;;;;;;;5033576;28;46634;-70
2022/03/03 12:30:44;;;;;;;;;14.50;12.75;;;;;;;;5029133;28;45456;-70
2022/03/03 12:33:18;;;;;;;;;12.50;11.50;;;;;;;;5033679;28;45406;-71
2022/03/03 12:35:45;;;;;;;;;15.25;14.50;;;;;;;;5034181;28;45539;-71
2022/03/03 12:38:10;;;;;;;;;15.25;11.75;;;;;;;;5034495;28;49366;-72
2022/03/03 12:40:36;;;;;;;;;15.25;13.50;;;;;;;;5033578;28;45689;-71
2022/03/03 12:43:02;;;;;;;;;16.50;12.50;;;;;;;;5034045;28;45582;-70
2022/03/03 12:45:29;;;;;;;;;15.50;13.75;;;;;;;;5033651;28;45502;-70
2022/03/03 12:47:55;;;;;;;;;13.25;11.50;;;;;;;;5033512;28;47070;-71
2022/03/03 12:50:21;;;;;;;;;12.00;12.00;;;;;;;;5033872;28;45511;-71
2022/03/03 12:52:55;;;;;;;;;14.00;11.25;;;;;;;;5033868;28;45461;-70
2022/03/03 12:55:25;;;;;;;;;14.00;14.00;;;;;;;;5033540;28;45685;-71
2022/03/03 12:57:51;;;;;;;;;14.50;12.75;;;;;;;;5082617;27;46324;-71
2022/03/03 13:00:16;;;;;;;;;11.50;11.25;;;;;;;;5096708;27;45493;-71
2022/03/03 13:02:55;;;;;;;;;12.75;11.00;;;;;;;;5096801;27;45453;-71
2022/03/03 13:05:31;;;;;;;;;15.50;14.00;;;;;;;;5093808;27;45612;-70
2022/03/03 13:07:56;;;;;;;;;12.00;12.00;;;;;;;;5098046;27;47011;-71
2022/03/03 13:10:21;;;;;;;;;11.25;11.00;;;;;;;;5096188;27;45470;-71
2022/03/03 13:12:48;;;;;;;;;11.75;10.50;;;;;;;;5095924;27;45361;-71
2022/03/03 13:15:13;;;;;;;;;10.25;10.25;;;;;;;;5089708;27;45477;-71
2022/03/03 13:17:57;;;;;;;;;13.75;13.75;;;;;;;;5101317;27;46084;-71
2022/03/03 13:20:23;;;;;;;;;13.50;12.75;;;;;;;;5092731;27;45244;-71
2022/03/03 13:22:49;;;;;;;;;9.50;9.50;;;;;;;;5097089;27;45430;-71
2022/03/03 13:25:18;;;;;;;;;13.00;12.00;;;;;;;;5087527;27;45452;-71
2022/03/03 13:27:44;;;;;;;;;13.50;12.50;;;;;;;;5087961;27;45370;-71
2022/03/03 13:30:10;;;;;;;;;15.25;11.50;;;;;;;;5092367;27;45578;-71
2022/03/03 13:32:45;;;;;;;;;12.75;10.50;;;;;;;;5098625;27;45420;-71
2022/03/03 13:35:11;;;;;;;;;11.75;10.25;;;;;;;;5090854;27;45511;-71
2022/03/03 13:37:36;;;;;;;;;11.75;10.50;;;;;;;;5095668;27;45476;-70
2022/03/03 13:40:19;;;;;;;;;10.25;10.25;;;;;;;;5095953;27;45380;-70
2022/03/03 13:42:44;;;;;;;;;14.25;11.75;;;;;;;;5097863;27;47619;-71
2022/03/03 13:45:10;;;;;;;;;11.75;10.00;;;;;;;;5095723;27;45666;-71
2022/03/03 13:47:39;;;;;;;;;13.00;8.75;;;;;;;;5095884;27;45519;-71
2022/03/03 13:50:06;;;;;;;;;9.00;9.00;;;;;;;;5095990;27;45432;-71
2022/03/03 13:52:33;;;;;;;;;9.25;9.25;;;;;;;;5094345;27;45464;-71
2022/03/03 13:55:04;;;;;;;;;9.25;9.25;;;;;;;;5098723;27;45472;-71
2022/03/03 13:57:29;;;;;;;;;13.00;12.00;;;;;;;;5095541;27;46910;-71
2022/03/03 13:59:55;;;;;;;;;9.00;8.50;;;;;;;;5094974;27;45522;-71
2022/03/03 14:02:20;;;;;;;;;11.00;8.25;;;;;;;;5095390;27;45255;-71
2022/03/03 14:05:02;;;;;;;;;9.25;9.25;;;;;;;;5096072;27;45409;-70
2022/03/03 14:07:28;;;;;;;;;10.00;8.25;;;;;;;;5085187;27;46491;-71
2022/03/03 14:09:57;;;;;;;;;13.00;9.00;;;;;;;;5088919;27;45519;-71
2022/03/03 14:12:22;;;;;;;;;12.75;10.25;;;;;;;;5095657;27;45483;-71
2022/03/03 14:14:48;;;;;;;;;7.50;7.50;;;;;;;;5095257;27;45394;-71
2022/03/03 14:17:13;;;;;;;;;9.25;7.00;;;;;;;;5096212;27;46643;-70